sensor_id;sensor_type;location;lat;lon;timestamp;P1;durP1;ratioP1;P2;durP2;ratioP2
5961;SDS011;3007;50.770;0.250;2022-12-08T00:00:46;16.67;;;9.97;;
5961;SDS011;3007;50.770;0.250;2022-12-08T00:03:13;16.57;;;11.17;;
5961;SDS011;3007;50.770;0.250;2022-12-08T00:05:43;15.10;;;8.90;;
5961;SDS011;3007;50.770;0.250;2022-12-08T00:08:28;17.33;;;9.40;;
5961;SDS011;3007;50.770;0.250;2022-12-08T00:11:14;16.40;;;10.07;;
5961;SDS011;3007;50.770;0.250;2022-12-08T00:13:42;19.73;;;11.10;;
5961;SDS011;3007;50.770;0.250;2022-12-08T00:16:09;17.50;;;10.17;;
5961;SDS011;3007;50.770;0.250;2022-12-08T00:18:36;16.50;;;9.30;;
5961;SDS011;3007;50.770;0.250;2022-12-08T00:21:04;15.97;;;9.97;;
5961;SDS011;3007;50.770;0.250;2022-12-08T00:23:31;15.10;;;9.60;;
5961;SDS011;3007;50.770;0.250;2022-12-08T00:26:00;15.50;;;9.20;;
5961;SDS011;3007;50.770;0.250;2022-12-08T00:28:29;13.43;;;8.77;;
5961;SDS011;3007;50.770;0.250;2022-12-08T00:30:57;18.60;;;6.97;;
5961;SDS011;3007;50.770;0.250;2022-12-08T00:33:26;8.30;;;5.63;;
5961;SDS011;3007;50.770;0.250;2022-12-08T00:35:53;13.20;;;7.43;;
5961;SDS011;3007;50.770;0.250;2022-12-08T00:38:20;12.27;;;8.07;;
5961;SDS011;3007;50.770;0.250;2022-12-08T00:40:47;19.30;;;8.30;;
5961;SDS011;3007;50.770;0.250;2022-12-08T00:43:14;15.03;;;9.37;;
5961;SDS011;3007;50.770;0.250;2022-12-08T00:45:43;14.93;;;8.50;;
5961;SDS011;3007;50.770;0.250;2022-12-08T00:48:10;11.93;;;7.03;;
5961;SDS011;3007;50.770;0.250;2022-12-08T00:50:37;16.70;;;9.07;;
5961;SDS011;3007;50.770;0.250;2022-12-08T00:53:04;17.70;;;9.17;;
5961;SDS011;3007;50.770;0.250;2022-12-08T00:55:31;16.37;;;9.70;;
5961;SDS011;3007;50.770;0.250;2022-12-08T00:57:58;15.07;;;8.53;;
5961;SDS011;3007;50.770;0.250;2022-12-08T01:00:25;18.00;;;9.00;;
5961;SDS011;3007;50.770;0.250;2022-12-08T01:02:54;11.47;;;6.50;;
5961;SDS011;3007;50.770;0.250;2022-12-08T01:05:21;13.00;;;6.20;;
5961;SDS011;3007;50.770;0.250;2022-12-08T01:07:48;14.90;;;9.50;;
5961;SDS011;3007;50.770;0.250;2022-12-08T01:10:15;10.87;;;7.90;;
5961;SDS011;3007;50.770;0.250;2022-12-08T01:12:42;12.90;;;5.87;;
5961;SDS011;3007;50.770;0.250;2022-12-08T01:15:10;9.97;;;6.13;;
5961;SDS011;3007;50.770;0.250;2022-12-08T01:17:37;11.23;;;5.73;;
5961;SDS011;3007;50.770;0.250;2022-12-08T01:20:06;10.97;;;6.17;;
5961;SDS011;3007;50.770;0.250;2022-12-08T01:22:33;14.77;;;6.53;;
5961;SDS011;3007;50.770;0.250;2022-12-08T01:25:00;14.77;;;6.57;;
5961;SDS011;3007;50.770;0.250;2022-12-08T01:27:28;8.80;;;6.23;;
5961;SDS011;3007;50.770;0.250;2022-12-08T01:29:55;12.97;;;6.07;;
5961;SDS011;3007;50.770;0.250;2022-12-08T01:32:22;11.17;;;5.67;;
5961;SDS011;3007;50.770;0.250;2022-12-08T01:34:49;7.30;;;4.97;;
5961;SDS011;3007;50.770;0.250;2022-12-08T01:37:18;5.67;;;3.27;;
5961;SDS011;3007;50.770;0.250;2022-12-08T01:39:46;3.80;;;2.50;;
5961;SDS011;3007;50.770;0.250;2022-12-08T01:42:17;5.90;;;2.70;;
5961;SDS011;3007;50.770;0.250;2022-12-08T01:44:53;3.57;;;2.20;;
5961;SDS011;3007;50.770;0.250;2022-12-08T01:47:23;7.93;;;2.50;;
5961;SDS011;3007;50.770;0.250;2022-12-08T01:49:52;4.87;;;2.40;;
5961;SDS011;3007;50.770;0.250;2022-12-08T01:52:22;7.27;;;2.37;;
5961;SDS011;3007;50.770;0.250;2022-12-08T01:54:55;6.20;;;2.60;;
5961;SDS011;3007;50.770;0.250;2022-12-08T01:57:25;6.27;;;2.13;;
5961;SDS011;3007;50.770;0.250;2022-12-08T01:59:59;5.57;;;2.23;;
5961;SDS011;3007;50.770;0.250;2022-12-08T02:02:28;3.10;;;2.10;;
5961;SDS011;3007;50.770;0.250;2022-12-08T02:05:00;6.10;;;2.07;;
5961;SDS011;3007;50.770;0.250;2022-12-08T02:07:30;6.87;;;3.60;;
5961;SDS011;3007;50.770;0.250;2022-12-08T02:09:57;5.83;;;3.40;;
5961;SDS011;3007;50.770;0.250;2022-12-08T02:12:24;8.93;;;4.20;;
5961;SDS011;3007;50.770;0.250;2022-12-08T02:14:51;5.43;;;3.07;;
5961;SDS011;3007;50.770;0.250;2022-12-08T02:17:23;7.80;;;3.10;;
5961;SDS011;3007;50.770;0.250;2022-12-08T02:20:15;9.87;;;4.27;;
5961;SDS011;3007;50.770;0.250;2022-12-08T02:22:53;6.80;;;3.40;;
5961;SDS011;3007;50.770;0.250;2022-12-08T02:25:27;6.40;;;3.17;;
5961;SDS011;3007;50.770;0.250;2022-12-08T02:28:09;7.37;;;3.10;;
5961;SDS011;3007;50.770;0.250;2022-12-08T02:30:52;4.17;;;2.20;;
5961;SDS011;3007;50.770;0.250;2022-12-08T02:36:31;2.80;;;1.97;;
5961;SDS011;3007;50.770;0.250;2022-12-08T02:39:09;7.30;;;1.73;;
5961;SDS011;3007;50.770;0.250;2022-12-08T02:41:45;2.13;;;1.27;;
5961;SDS011;3007;50.770;0.250;2022-12-08T02:44:19;3.13;;;2.03;;
5961;SDS011;3007;50.770;0.250;2022-12-08T02:46:51;4.50;;;2.70;;
5961;SDS011;3007;50.770;0.250;2022-12-08T02:49:27;4.47;;;2.00;;
5961;SDS011;3007;50.770;0.250;2022-12-08T02:52:03;4.87;;;1.70;;
5961;SDS011;3007;50.770;0.250;2022-12-08T02:54:34;3.77;;;1.97;;
5961;SDS011;3007;50.770;0.250;2022-12-08T02:57:11;4.43;;;1.60;;
5961;SDS011;3007;50.770;0.250;2022-12-08T02:59:53;4.13;;;1.70;;
5961;SDS011;3007;50.770;0.250;2022-12-08T03:05:37;3.90;;;1.57;;
5961;SDS011;3007;50.770;0.250;2022-12-08T03:08:17;3.87;;;1.97;;
5961;SDS011;3007;50.770;0.250;2022-12-08T03:10:50;3.53;;;1.50;;
5961;SDS011;3007;50.770;0.250;2022-12-08T03:13:22;3.33;;;1.57;;
5961;SDS011;3007;50.770;0.250;2022-12-08T03:15:52;9.23;;;4.23;;
5961;SDS011;3007;50.770;0.250;2022-12-08T03:18:22;13.53;;;6.60;;
5961;SDS011;3007;50.770;0.250;2022-12-08T03:20:57;14.37;;;8.20;;
5961;SDS011;3007;50.770;0.250;2022-12-08T03:23:25;14.47;;;8.13;;
5961;SDS011;3007;50.770;0.250;2022-12-08T03:25:55;15.60;;;9.67;;
5961;SDS011;3007;50.770;0.250;2022-12-08T03:28:27;18.33;;;10.30;;
5961;SDS011;3007;50.770;0.250;2022-12-08T03:30:54;20.30;;;11.77;;
5961;SDS011;3007;50.770;0.250;2022-12-08T03:33:25;24.33;;;11.97;;
5961;SDS011;3007;50.770;0.250;2022-12-08T03:35:57;19.80;;;10.83;;
5961;SDS011;3007;50.770;0.250;2022-12-08T03:38:34;22.93;;;12.30;;
5961;SDS011;3007;50.770;0.250;2022-12-08T03:41:03;20.10;;;12.10;;
5961;SDS011;3007;50.770;0.250;2022-12-08T03:43:46;17.13;;;11.37;;
5961;SDS011;3007;50.770;0.250;2022-12-08T03:46:14;15.97;;;10.63;;
5961;SDS011;3007;50.770;0.250;2022-12-08T03:48:44;18.40;;;10.80;;
5961;SDS011;3007;50.770;0.250;2022-12-08T03:51:13;16.23;;;10.30;;
5961;SDS011;3007;50.770;0.250;2022-12-08T03:53:40;16.87;;;10.67;;
5961;SDS011;3007;50.770;0.250;2022-12-08T03:56:13;15.63;;;9.43;;
5961;SDS011;3007;50.770;0.250;2022-12-08T03:58:42;15.97;;;9.87;;
5961;SDS011;3007;50.770;0.250;2022-12-08T04:01:09;15.60;;;8.27;;
5961;SDS011;3007;50.770;0.250;2022-12-08T04:03:37;15.77;;;8.07;;
5961;SDS011;3007;50.770;0.250;2022-12-08T04:06:04;12.77;;;7.20;;
5961;SDS011;3007;50.770;0.250;2022-12-08T04:08:33;10.80;;;6.13;;
5961;SDS011;3007;50.770;0.250;2022-12-08T04:11:00;12.77;;;6.63;;
5961;SDS011;3007;50.770;0.250;2022-12-08T04:13:27;10.27;;;5.50;;
5961;SDS011;3007;50.770;0.250;2022-12-08T04:15:54;11.47;;;5.57;;
5961;SDS011;3007;50.770;0.250;2022-12-08T04:18:21;11.10;;;6.07;;
5961;SDS011;3007;50.770;0.250;2022-12-08T04:20:48;10.60;;;5.67;;
5961;SDS011;3007;50.770;0.250;2022-12-08T04:23:15;16.90;;;8.37;;
5961;SDS011;3007;50.770;0.250;2022-12-08T04:25:44;17.00;;;9.73;;
5961;SDS011;3007;50.770;0.250;2022-12-08T04:28:11;14.23;;;9.03;;
5961;SDS011;3007;50.770;0.250;2022-12-08T04:30:38;15.87;;;10.87;;
5961;SDS011;3007;50.770;0.250;2022-12-08T04:33:05;16.47;;;9.97;;
5961;SDS011;3007;50.770;0.250;2022-12-08T04:35:33;17.37;;;9.77;;
5961;SDS011;3007;50.770;0.250;2022-12-08T04:38:00;16.20;;;9.03;;
5961;SDS011;3007;50.770;0.250;2022-12-08T04:40:27;12.90;;;7.73;;
5961;SDS011;3007;50.770;0.250;2022-12-08T04:42:55;8.57;;;6.20;;
5961;SDS011;3007;50.770;0.250;2022-12-08T04:45:22;11.53;;;7.20;;
5961;SDS011;3007;50.770;0.250;2022-12-08T04:47:50;9.60;;;5.90;;
5961;SDS011;3007;50.770;0.250;2022-12-08T04:50:17;12.27;;;5.30;;
5961;SDS011;3007;50.770;0.250;2022-12-08T04:52:44;7.00;;;4.20;;
5961;SDS011;3007;50.770;0.250;2022-12-08T04:55:11;6.13;;;3.23;;
5961;SDS011;3007;50.770;0.250;2022-12-08T04:57:38;5.50;;;2.90;;
5961;SDS011;3007;50.770;0.250;2022-12-08T05:00:07;5.90;;;2.10;;
5961;SDS011;3007;50.770;0.250;2022-12-08T05:02:35;5.10;;;3.17;;
5961;SDS011;3007;50.770;0.250;2022-12-08T05:05:03;4.33;;;2.87;;
5961;SDS011;3007;50.770;0.250;2022-12-08T05:07:30;4.47;;;2.17;;
5961;SDS011;3007;50.770;0.250;2022-12-08T05:09:58;2.37;;;1.57;;
5961;SDS011;3007;50.770;0.250;2022-12-08T05:12:25;3.57;;;1.40;;
5961;SDS011;3007;50.770;0.250;2022-12-08T05:14:52;3.67;;;1.30;;
5961;SDS011;3007;50.770;0.250;2022-12-08T05:17:20;2.37;;;1.20;;
5961;SDS011;3007;50.770;0.250;2022-12-08T05:19:47;2.70;;;1.20;;
5961;SDS011;3007;50.770;0.250;2022-12-08T05:22:15;3.10;;;1.40;;
5961;SDS011;3007;50.770;0.250;2022-12-08T05:24:42;2.27;;;0.90;;
5961;SDS011;3007;50.770;0.250;2022-12-08T05:27:09;3.87;;;1.23;;
5961;SDS011;3007;50.770;0.250;2022-12-08T05:29:36;3.57;;;0.87;;
5961;SDS011;3007;50.770;0.250;2022-12-08T05:32:03;5.33;;;1.30;;
5961;SDS011;3007;50.770;0.250;2022-12-08T05:34:32;2.83;;;1.80;;
5961;SDS011;3007;50.770;0.250;2022-12-08T05:36:59;6.20;;;1.83;;
5961;SDS011;3007;50.770;0.250;2022-12-08T05:39:26;5.40;;;2.53;;
5961;SDS011;3007;50.770;0.250;2022-12-08T05:41:53;8.67;;;2.47;;
5961;SDS011;3007;50.770;0.250;2022-12-08T05:44:20;3.97;;;2.20;;
5961;SDS011;3007;50.770;0.250;2022-12-08T05:46:48;7.23;;;2.07;;
5961;SDS011;3007;50.770;0.250;2022-12-08T05:49:15;13.30;;;2.50;;
5961;SDS011;3007;50.770;0.250;2022-12-08T05:51:43;5.50;;;2.77;;
5961;SDS011;3007;50.770;0.250;2022-12-08T05:54:11;2.50;;;1.40;;
5961;SDS011;3007;50.770;0.250;2022-12-08T05:56:38;4.50;;;2.00;;
5961;SDS011;3007;50.770;0.250;2022-12-08T05:59:05;6.07;;;1.90;;
5961;SDS011;3007;50.770;0.250;2022-12-08T06:01:33;3.80;;;2.10;;
5961;SDS011;3007;50.770;0.250;2022-12-08T06:04:00;3.43;;;1.90;;
5961;SDS011;3007;50.770;0.250;2022-12-08T06:06:28;3.93;;;1.93;;
5961;SDS011;3007;50.770;0.250;2022-12-08T06:08:57;4.33;;;1.80;;
5961;SDS011;3007;50.770;0.250;2022-12-08T06:11:25;1.47;;;1.07;;
5961;SDS011;3007;50.770;0.250;2022-12-08T06:13:54;2.97;;;1.00;;
5961;SDS011;3007;50.770;0.250;2022-12-08T06:16:22;1.90;;;0.90;;
5961;SDS011;3007;50.770;0.250;2022-12-08T06:18:50;3.07;;;0.97;;
5961;SDS011;3007;50.770;0.250;2022-12-08T06:21:18;3.57;;;1.10;;
5961;SDS011;3007;50.770;0.250;2022-12-08T06:23:46;1.90;;;0.90;;
5961;SDS011;3007;50.770;0.250;2022-12-08T06:26:16;3.10;;;1.30;;
5961;SDS011;3007;50.770;0.250;2022-12-08T06:28:43;1.93;;;1.70;;
5961;SDS011;3007;50.770;0.250;2022-12-08T06:31:12;4.17;;;1.80;;
5961;SDS011;3007;50.770;0.250;2022-12-08T06:33:41;5.27;;;2.13;;
5961;SDS011;3007;50.770;0.250;2022-12-08T06:36:08;1.97;;;1.20;;
5961;SDS011;3007;50.770;0.250;2022-12-08T06:38:37;2.90;;;1.50;;
5961;SDS011;3007;50.770;0.250;2022-12-08T06:41:04;2.10;;;1.40;;
5961;SDS011;3007;50.770;0.250;2022-12-08T06:43:33;5.30;;;1.70;;
5961;SDS011;3007;50.770;0.250;2022-12-08T06:46:01;3.07;;;1.70;;
5961;SDS011;3007;50.770;0.250;2022-12-08T06:48:30;2.20;;;1.23;;
5961;SDS011;3007;50.770;0.250;2022-12-08T06:51:03;2.83;;;2.00;;
5961;SDS011;3007;50.770;0.250;2022-12-08T06:53:31;5.77;;;2.90;;
5961;SDS011;3007;50.770;0.250;2022-12-08T06:56:00;4.73;;;2.83;;
5961;SDS011;3007;50.770;0.250;2022-12-08T06:58:30;4.57;;;2.27;;
5961;SDS011;3007;50.770;0.250;2022-12-08T07:01:03;2.50;;;1.30;;
5961;SDS011;3007;50.770;0.250;2022-12-08T07:03:32;5.03;;;3.50;;
5961;SDS011;3007;50.770;0.250;2022-12-08T07:05:59;5.57;;;2.90;;
5961;SDS011;3007;50.770;0.250;2022-12-08T07:08:26;6.40;;;4.03;;
5961;SDS011;3007;50.770;0.250;2022-12-08T07:10:53;11.83;;;6.17;;
5961;SDS011;3007;50.770;0.250;2022-12-08T07:13:20;11.23;;;8.07;;
5961;SDS011;3007;50.770;0.250;2022-12-08T07:15:50;11.27;;;7.60;;
5961;SDS011;3007;50.770;0.250;2022-12-08T07:18:19;13.83;;;8.17;;
5961;SDS011;3007;50.770;0.250;2022-12-08T07:20:46;13.67;;;7.33;;
5961;SDS011;3007;50.770;0.250;2022-12-08T07:23:13;15.17;;;8.97;;
5961;SDS011;3007;50.770;0.250;2022-12-08T07:25:40;12.10;;;7.23;;
5961;SDS011;3007;50.770;0.250;2022-12-08T07:28:08;12.73;;;8.23;;
5961;SDS011;3007;50.770;0.250;2022-12-08T07:30:36;16.20;;;8.80;;
5961;SDS011;3007;50.770;0.250;2022-12-08T07:33:06;15.00;;;8.50;;
5961;SDS011;3007;50.770;0.250;2022-12-08T07:35:34;17.63;;;9.63;;
5961;SDS011;3007;50.770;0.250;2022-12-08T07:38:01;15.73;;;10.73;;
5961;SDS011;3007;50.770;0.250;2022-12-08T07:40:28;15.10;;;9.20;;
5961;SDS011;3007;50.770;0.250;2022-12-08T07:42:55;12.50;;;7.67;;
5961;SDS011;3007;50.770;0.250;2022-12-08T07:45:23;9.80;;;7.10;;
5961;SDS011;3007;50.770;0.250;2022-12-08T07:47:50;9.53;;;6.33;;
5961;SDS011;3007;50.770;0.250;2022-12-08T07:50:17;8.03;;;5.10;;
5961;SDS011;3007;50.770;0.250;2022-12-08T07:52:45;8.57;;;5.00;;
5961;SDS011;3007;50.770;0.250;2022-12-08T07:55:12;5.27;;;3.60;;
5961;SDS011;3007;50.770;0.250;2022-12-08T07:57:42;7.67;;;3.50;;
5961;SDS011;3007;50.770;0.250;2022-12-08T08:00:09;8.13;;;4.70;;
5961;SDS011;3007;50.770;0.250;2022-12-08T08:02:37;7.03;;;4.50;;
5961;SDS011;3007;50.770;0.250;2022-12-08T08:05:05;6.33;;;3.93;;
5961;SDS011;3007;50.770;0.250;2022-12-08T08:07:32;6.00;;;3.00;;
5961;SDS011;3007;50.770;0.250;2022-12-08T08:10:02;5.03;;;3.10;;
5961;SDS011;3007;50.770;0.250;2022-12-08T08:12:30;6.73;;;3.20;;
5961;SDS011;3007;50.770;0.250;2022-12-08T08:14:57;4.07;;;3.00;;
5961;SDS011;3007;50.770;0.250;2022-12-08T08:17:24;6.03;;;3.70;;
5961;SDS011;3007;50.770;0.250;2022-12-08T08:19:51;5.57;;;3.83;;
5961;SDS011;3007;50.770;0.250;2022-12-08T08:22:18;5.83;;;3.50;;
5961;SDS011;3007;50.770;0.250;2022-12-08T08:24:45;5.00;;;3.97;;
5961;SDS011;3007;50.770;0.250;2022-12-08T08:27:14;5.90;;;3.30;;
5961;SDS011;3007;50.770;0.250;2022-12-08T08:29:41;6.47;;;4.10;;
5961;SDS011;3007;50.770;0.250;2022-12-08T08:32:08;6.00;;;3.00;;
5961;SDS011;3007;50.770;0.250;2022-12-08T08:34:35;6.03;;;3.63;;
5961;SDS011;3007;50.770;0.250;2022-12-08T08:37:03;9.03;;;3.17;;
5961;SDS011;3007;50.770;0.250;2022-12-08T08:39:30;5.17;;;3.27;;
5961;SDS011;3007;50.770;0.250;2022-12-08T08:41:57;4.23;;;2.73;;
5961;SDS011;3007;50.770;0.250;2022-12-08T08:44:26;5.67;;;2.97;;
5961;SDS011;3007;50.770;0.250;2022-12-08T08:46:53;6.10;;;3.33;;
5961;SDS011;3007;50.770;0.250;2022-12-08T08:49:20;3.63;;;2.93;;
5961;SDS011;3007;50.770;0.250;2022-12-08T08:51:47;6.37;;;3.17;;
5961;SDS011;3007;50.770;0.250;2022-12-08T08:54:14;4.33;;;2.93;;
5961;SDS011;3007;50.770;0.250;2022-12-08T08:56:41;6.60;;;3.43;;
5961;SDS011;3007;50.770;0.250;2022-12-08T08:59:09;4.13;;;2.70;;
5961;SDS011;3007;50.770;0.250;2022-12-08T09:01:37;4.60;;;3.50;;
5961;SDS011;3007;50.770;0.250;2022-12-08T09:04:04;8.80;;;3.87;;
5961;SDS011;3007;50.770;0.250;2022-12-08T09:06:31;11.27;;;3.57;;
5961;SDS011;3007;50.770;0.250;2022-12-08T09:08:59;7.30;;;3.43;;
5961;SDS011;3007;50.770;0.250;2022-12-08T09:11:26;7.73;;;4.07;;
5961;SDS011;3007;50.770;0.250;2022-12-08T09:13:53;9.40;;;4.20;;
5961;SDS011;3007;50.770;0.250;2022-12-08T09:16:20;7.40;;;4.17;;
5961;SDS011;3007;50.770;0.250;2022-12-08T09:18:49;6.37;;;4.13;;
5961;SDS011;3007;50.770;0.250;2022-12-08T09:21:17;6.80;;;4.47;;
5961;SDS011;3007;50.770;0.250;2022-12-08T09:23:46;7.57;;;4.00;;
5961;SDS011;3007;50.770;0.250;2022-12-08T09:26:15;6.73;;;3.57;;
5961;SDS011;3007;50.770;0.250;2022-12-08T09:28:46;5.83;;;3.87;;
5961;SDS011;3007;50.770;0.250;2022-12-08T09:31:14;5.50;;;3.13;;
5961;SDS011;3007;50.770;0.250;2022-12-08T09:33:42;7.53;;;4.00;;
5961;SDS011;3007;50.770;0.250;2022-12-08T09:36:11;4.23;;;3.03;;
5961;SDS011;3007;50.770;0.250;2022-12-08T09:38:38;5.60;;;3.10;;
5961;SDS011;3007;50.770;0.250;2022-12-08T09:41:11;9.20;;;3.47;;
5961;SDS011;3007;50.770;0.250;2022-12-08T09:43:45;5.33;;;2.60;;
5961;SDS011;3007;50.770;0.250;2022-12-08T09:46:22;5.17;;;3.27;;
5961;SDS011;3007;50.770;0.250;2022-12-08T09:48:54;5.60;;;3.03;;
5961;SDS011;3007;50.770;0.250;2022-12-08T09:51:26;5.40;;;3.30;;
5961;SDS011;3007;50.770;0.250;2022-12-08T09:53:57;4.60;;;3.20;;
5961;SDS011;3007;50.770;0.250;2022-12-08T09:56:29;6.10;;;3.50;;
5961;SDS011;3007;50.770;0.250;2022-12-08T09:59:01;5.83;;;3.23;;
5961;SDS011;3007;50.770;0.250;2022-12-08T10:01:32;4.97;;;2.83;;
5961;SDS011;3007;50.770;0.250;2022-12-08T10:04:02;5.90;;;2.83;;
5961;SDS011;3007;50.770;0.250;2022-12-08T10:06:35;3.47;;;2.23;;
5961;SDS011;3007;50.770;0.250;2022-12-08T10:09:09;3.77;;;2.13;;
5961;SDS011;3007;50.770;0.250;2022-12-08T10:11:58;6.80;;;2.43;;
5961;SDS011;3007;50.770;0.250;2022-12-08T10:14:30;3.53;;;2.10;;
5961;SDS011;3007;50.770;0.250;2022-12-08T10:17:03;4.90;;;2.80;;
5961;SDS011;3007;50.770;0.250;2022-12-08T10:19:35;4.80;;;2.90;;
5961;SDS011;3007;50.770;0.250;2022-12-08T10:22:10;4.60;;;2.83;;
5961;SDS011;3007;50.770;0.250;2022-12-08T10:24:43;4.70;;;3.43;;
5961;SDS011;3007;50.770;0.250;2022-12-08T10:27:18;9.17;;;2.60;;
5961;SDS011;3007;50.770;0.250;2022-12-08T10:29:45;6.40;;;3.40;;
5961;SDS011;3007;50.770;0.250;2022-12-08T10:32:13;5.90;;;3.50;;
5961;SDS011;3007;50.770;0.250;2022-12-08T10:35:00;3.93;;;2.87;;
5961;SDS011;3007;50.770;0.250;2022-12-08T10:37:30;4.23;;;2.63;;
5961;SDS011;3007;50.770;0.250;2022-12-08T10:39:58;4.20;;;2.40;;
5961;SDS011;3007;50.770;0.250;2022-12-08T10:42:29;4.03;;;2.80;;
5961;SDS011;3007;50.770;0.250;2022-12-08T10:45:10;4.70;;;2.60;;
5961;SDS011;3007;50.770;0.250;2022-12-08T10:47:49;5.20;;;2.83;;
5961;SDS011;3007;50.770;0.250;2022-12-08T10:50:24;6.30;;;2.97;;
5961;SDS011;3007;50.770;0.250;2022-12-08T10:52:58;4.13;;;2.90;;
5961;SDS011;3007;50.770;0.250;2022-12-08T10:55:26;4.13;;;2.43;;
5961;SDS011;3007;50.770;0.250;2022-12-08T10:57:54;4.07;;;2.30;;
5961;SDS011;3007;50.770;0.250;2022-12-08T11:00:23;3.27;;;2.13;;
5961;SDS011;3007;50.770;0.250;2022-12-08T11:02:53;6.70;;;3.00;;
5961;SDS011;3007;50.770;0.250;2022-12-08T11:05:24;5.13;;;3.50;;
5961;SDS011;3007;50.770;0.250;2022-12-08T11:08:10;9.70;;;2.97;;
5961;SDS011;3007;50.770;0.250;2022-12-08T11:10:42;2.93;;;2.40;;
5961;SDS011;3007;50.770;0.250;2022-12-08T11:13:12;4.60;;;3.00;;
5961;SDS011;3007;50.770;0.250;2022-12-08T11:15:43;5.00;;;3.17;;
5961;SDS011;3007;50.770;0.250;2022-12-08T11:18:20;11.17;;;4.57;;
5961;SDS011;3007;50.770;0.250;2022-12-08T11:20:54;5.27;;;3.80;;
5961;SDS011;3007;50.770;0.250;2022-12-08T11:23:26;4.03;;;2.10;;
5961;SDS011;3007;50.770;0.250;2022-12-08T11:25:55;6.10;;;2.80;;
5961;SDS011;3007;50.770;0.250;2022-12-08T11:28:26;4.77;;;2.23;;
5961;SDS011;3007;50.770;0.250;2022-12-08T11:30:56;4.90;;;2.60;;
5961;SDS011;3007;50.770;0.250;2022-12-08T11:33:29;2.87;;;1.80;;
5961;SDS011;3007;50.770;0.250;2022-12-08T11:35:58;4.77;;;2.33;;
5961;SDS011;3007;50.770;0.250;2022-12-08T11:38:30;3.17;;;2.00;;
5961;SDS011;3007;50.770;0.250;2022-12-08T11:41:00;3.23;;;1.63;;
5961;SDS011;3007;50.770;0.250;2022-12-08T11:43:35;1.20;;;0.80;;
5961;SDS011;3007;50.770;0.250;2022-12-08T11:46:10;4.27;;;0.70;;
5961;SDS011;3007;50.770;0.250;2022-12-08T11:48:42;4.13;;;0.87;;
5961;SDS011;3007;50.770;0.250;2022-12-08T11:51:15;0.80;;;0.60;;
5961;SDS011;3007;50.770;0.250;2022-12-08T11:53:50;1.70;;;0.90;;
5961;SDS011;3007;50.770;0.250;2022-12-08T11:56:30;1.20;;;1.10;;
5961;SDS011;3007;50.770;0.250;2022-12-08T11:59:00;1.53;;;1.33;;
5961;SDS011;3007;50.770;0.250;2022-12-08T12:01:34;3.43;;;1.30;;
5961;SDS011;3007;50.770;0.250;2022-12-08T12:04:05;3.10;;;1.60;;
5961;SDS011;3007;50.770;0.250;2022-12-08T12:09:56;6.87;;;2.13;;
5961;SDS011;3007;50.770;0.250;2022-12-08T12:12:40;7.00;;;3.30;;
5961;SDS011;3007;50.770;0.250;2022-12-08T12:15:28;8.57;;;4.27;;
5961;SDS011;3007;50.770;0.250;2022-12-08T12:18:15;8.13;;;4.00;;
5961;SDS011;3007;50.770;0.250;2022-12-08T12:20:53;6.30;;;3.70;;
5961;SDS011;3007;50.770;0.250;2022-12-08T12:23:25;7.30;;;2.80;;
5961;SDS011;3007;50.770;0.250;2022-12-08T12:26:02;6.63;;;3.73;;
5961;SDS011;3007;50.770;0.250;2022-12-08T12:28:34;5.17;;;3.03;;
5961;SDS011;3007;50.770;0.250;2022-12-08T12:31:07;5.13;;;2.67;;
5961;SDS011;3007;50.770;0.250;2022-12-08T12:33:37;6.37;;;3.17;;
5961;SDS011;3007;50.770;0.250;2022-12-08T12:36:05;6.87;;;3.80;;
5961;SDS011;3007;50.770;0.250;2022-12-08T12:38:35;7.03;;;3.43;;
5961;SDS011;3007;50.770;0.250;2022-12-08T12:41:23;5.70;;;3.37;;
5961;SDS011;3007;50.770;0.250;2022-12-08T12:47:01;8.13;;;3.30;;
5961;SDS011;3007;50.770;0.250;2022-12-08T12:49:51;4.20;;;2.90;;
5961;SDS011;3007;50.770;0.250;2022-12-08T12:52:43;4.07;;;2.60;;
5961;SDS011;3007;50.770;0.250;2022-12-08T12:58:34;10.90;;;4.67;;
5961;SDS011;3007;50.770;0.250;2022-12-08T13:04:07;6.53;;;4.20;;
5961;SDS011;3007;50.770;0.250;2022-12-08T13:06:37;8.63;;;4.83;;
5961;SDS011;3007;50.770;0.250;2022-12-08T13:09:15;7.30;;;5.13;;
5961;SDS011;3007;50.770;0.250;2022-12-08T13:11:49;10.73;;;5.43;;
5961;SDS011;3007;50.770;0.250;2022-12-08T13:14:33;8.63;;;4.77;;
5961;SDS011;3007;50.770;0.250;2022-12-08T13:17:03;7.70;;;5.20;;
5961;SDS011;3007;50.770;0.250;2022-12-08T13:19:35;12.33;;;5.90;;
5961;SDS011;3007;50.770;0.250;2022-12-08T13:28:07;12.80;;;7.07;;
5961;SDS011;3007;50.770;0.250;2022-12-08T13:30:42;11.03;;;7.43;;
5961;SDS011;3007;50.770;0.250;2022-12-08T13:33:11;10.63;;;7.37;;
5961;SDS011;3007;50.770;0.250;2022-12-08T13:35:44;11.93;;;7.60;;
5961;SDS011;3007;50.770;0.250;2022-12-08T13:38:18;11.17;;;7.87;;
5961;SDS011;3007;50.770;0.250;2022-12-08T13:40:47;12.37;;;8.23;;
5961;SDS011;3007;50.770;0.250;2022-12-08T13:43:17;16.47;;;8.07;;
5961;SDS011;3007;50.770;0.250;2022-12-08T13:45:53;12.80;;;8.20;;
5961;SDS011;3007;50.770;0.250;2022-12-08T13:48:23;17.90;;;9.23;;
5961;SDS011;3007;50.770;0.250;2022-12-08T13:50:55;16.20;;;8.53;;
5961;SDS011;3007;50.770;0.250;2022-12-08T13:53:34;14.57;;;9.10;;
5961;SDS011;3007;50.770;0.250;2022-12-08T13:56:04;14.17;;;8.90;;
5961;SDS011;3007;50.770;0.250;2022-12-08T13:58:36;15.13;;;8.83;;
5961;SDS011;3007;50.770;0.250;2022-12-08T14:01:06;14.60;;;9.10;;
5961;SDS011;3007;50.770;0.250;2022-12-08T14:03:43;11.10;;;8.40;;
5961;SDS011;3007;50.770;0.250;2022-12-08T14:06:15;14.23;;;8.73;;
5961;SDS011;3007;50.770;0.250;2022-12-08T14:08:43;23.17;;;10.00;;
5961;SDS011;3007;50.770;0.250;2022-12-08T14:11:20;11.03;;;8.47;;
5961;SDS011;3007;50.770;0.250;2022-12-08T14:13:59;13.43;;;8.40;;
5961;SDS011;3007;50.770;0.250;2022-12-08T14:16:31;13.93;;;8.80;;
5961;SDS011;3007;50.770;0.250;2022-12-08T14:19:05;18.40;;;9.53;;
5961;SDS011;3007;50.770;0.250;2022-12-08T14:21:39;13.20;;;8.37;;
5961;SDS011;3007;50.770;0.250;2022-12-08T14:24:07;14.07;;;8.03;;
5961;SDS011;3007;50.770;0.250;2022-12-08T14:26:36;15.53;;;7.83;;
5961;SDS011;3007;50.770;0.250;2022-12-08T14:29:05;15.33;;;8.77;;
5961;SDS011;3007;50.770;0.250;2022-12-08T14:31:34;18.03;;;8.90;;
5961;SDS011;3007;50.770;0.250;2022-12-08T14:34:01;14.77;;;8.73;;
5961;SDS011;3007;50.770;0.250;2022-12-08T14:36:28;14.53;;;8.27;;
5961;SDS011;3007;50.770;0.250;2022-12-08T14:38:57;12.63;;;8.00;;
5961;SDS011;3007;50.770;0.250;2022-12-08T14:41:25;16.27;;;9.73;;
5961;SDS011;3007;50.770;0.250;2022-12-08T14:43:57;15.07;;;8.57;;
5961;SDS011;3007;50.770;0.250;2022-12-08T14:46:25;11.80;;;8.63;;
5961;SDS011;3007;50.770;0.250;2022-12-08T14:48:54;13.70;;;9.10;;
5961;SDS011;3007;50.770;0.250;2022-12-08T14:51:25;14.03;;;8.20;;
5961;SDS011;3007;50.770;0.250;2022-12-08T14:53:56;12.03;;;8.07;;
5961;SDS011;3007;50.770;0.250;2022-12-08T14:56:30;13.93;;;8.47;;
5961;SDS011;3007;50.770;0.250;2022-12-08T14:59:03;12.00;;;7.90;;
5961;SDS011;3007;50.770;0.250;2022-12-08T15:01:32;10.97;;;7.83;;
5961;SDS011;3007;50.770;0.250;2022-12-08T15:04:05;13.87;;;7.87;;
5961;SDS011;3007;50.770;0.250;2022-12-08T15:06:34;10.03;;;7.27;;
5961;SDS011;3007;50.770;0.250;2022-12-08T15:09:13;9.77;;;6.80;;
5961;SDS011;3007;50.770;0.250;2022-12-08T15:11:42;11.90;;;7.23;;
5961;SDS011;3007;50.770;0.250;2022-12-08T15:14:25;13.17;;;6.83;;
5961;SDS011;3007;50.770;0.250;2022-12-08T15:16:53;10.10;;;6.37;;
5961;SDS011;3007;50.770;0.250;2022-12-08T15:19:24;9.10;;;5.93;;
5961;SDS011;3007;50.770;0.250;2022-12-08T15:21:57;11.97;;;6.37;;
5961;SDS011;3007;50.770;0.250;2022-12-08T15:24:28;11.70;;;6.03;;
5961;SDS011;3007;50.770;0.250;2022-12-08T15:26:55;10.97;;;5.80;;
5961;SDS011;3007;50.770;0.250;2022-12-08T15:29:23;8.27;;;6.07;;
5961;SDS011;3007;50.770;0.250;2022-12-08T15:31:53;10.60;;;6.53;;
5961;SDS011;3007;50.770;0.250;2022-12-08T15:34:23;12.37;;;7.40;;
5961;SDS011;3007;50.770;0.250;2022-12-08T15:36:50;8.20;;;5.97;;
5961;SDS011;3007;50.770;0.250;2022-12-08T15:39:23;12.40;;;7.60;;
5961;SDS011;3007;50.770;0.250;2022-12-08T15:41:55;12.40;;;7.00;;
5961;SDS011;3007;50.770;0.250;2022-12-08T15:44:22;11.23;;;6.80;;
5961;SDS011;3007;50.770;0.250;2022-12-08T15:46:50;10.30;;;6.80;;
5961;SDS011;3007;50.770;0.250;2022-12-08T15:49:19;16.37;;;6.23;;
5961;SDS011;3007;50.770;0.250;2022-12-08T15:51:48;10.03;;;6.90;;
5961;SDS011;3007;50.770;0.250;2022-12-08T15:54:16;8.83;;;5.83;;